createdAt,value
2023-04-09T00:01:09.130Z,20.75
2023-04-09T00:04:11.782Z,20.25
2023-04-09T00:07:14.168Z,23.00
2023-04-09T00:10:16.879Z,24.00
2023-04-09T00:13:25.461Z,29.00
2023-04-09T00:16:38.739Z,19.50
2023-04-09T00:19:41.072Z,24.00
2023-04-09T00:22:43.664Z,24.00
2023-04-09T00:25:46.190Z,22.25
2023-04-09T00:28:48.844Z,22.75
2023-04-09T00:31:51.372Z,24.25
2023-04-09T00:34:54.056Z,23.25
2023-04-09T00:37:56.437Z,19.00
2023-04-09T00:40:59.073Z,21.00
2023-04-09T00:44:01.467Z,21.75
2023-04-09T00:47:05.164Z,18.75
2023-04-09T00:50:07.923Z,16.25
2023-04-09T00:53:11.149Z,21.75
2023-04-09T00:56:13.993Z,17.25
2023-04-09T00:59:16.991Z,22.50
2023-04-09T01:02:19.338Z,20.75
2023-04-09T01:05:22.667Z,19.00
2023-04-09T01:08:37.432Z,18.75
2023-04-09T01:12:02.867Z,23.50
2023-04-09T01:15:15.040Z,18.75
2023-04-09T01:18:20.668Z,18.25
2023-04-09T01:21:27.713Z,19.50
2023-04-09T01:24:36.196Z,20.00
2023-04-09T01:28:23.008Z,22.00
2023-04-09T01:31:31.422Z,25.00
2023-04-09T01:34:34.234Z,25.00
2023-04-09T01:37:37.733Z,22.75
2023-04-09T01:40:41.142Z,18.75
2023-04-09T01:43:44.462Z,17.75
2023-04-09T01:46:50.593Z,23.00
2023-04-09T01:49:54.800Z,17.25
2023-04-09T01:52:57.396Z,21.75
2023-04-09T01:56:00.588Z,22.00
2023-04-09T01:59:02.927Z,19.00
2023-04-09T02:02:13.278Z,19.25
2023-04-09T02:05:18.780Z,17.75
2023-04-09T02:08:22.053Z,24.00
2023-04-09T02:11:26.392Z,19.75
2023-04-09T02:14:29.540Z,20.50
2023-04-09T02:17:32.050Z,25.00
2023-04-09T02:20:34.750Z,21.25
2023-04-09T02:23:37.232Z,22.75
2023-04-09T02:26:40.830Z,19.00
2023-04-09T02:29:43.757Z,20.50
2023-04-09T02:32:48.052Z,21.25
2023-04-09T02:35:51.081Z,20.75
2023-04-09T02:38:55.383Z,25.00
2023-04-09T02:41:58.192Z,23.00
2023-04-09T02:45:02.966Z,19.00
2023-04-09T02:48:07.765Z,21.75
2023-04-09T02:51:11.515Z,21.50
2023-04-09T02:54:14.230Z,18.75
2023-04-09T02:57:16.950Z,27.00
2023-04-09T03:00:20.055Z,23.00
2023-04-09T03:03:23.090Z,19.25
2023-04-09T03:06:26.794Z,26.00
2023-04-09T03:09:31.263Z,25.75
2023-04-09T03:12:33.609Z,22.25
2023-04-09T03:15:36.475Z,21.50
2023-04-09T03:18:38.864Z,23.50
2023-04-09T03:21:41.682Z,19.75
2023-04-09T03:24:45.984Z,18.50
2023-04-09T03:27:48.834Z,22.75
2023-04-09T03:30:59.061Z,25.50
2023-04-09T03:34:02.348Z,34.75
2023-04-09T03:37:07.343Z,23.00
2023-04-09T03:40:10.713Z,25.50
2023-04-09T03:43:13.250Z,24.00
2023-04-09T03:46:23.497Z,26.50
2023-04-09T03:49:26.607Z,20.25
2023-04-09T03:52:32.548Z,26.50
2023-04-09T03:55:41.872Z,25.75
2023-04-09T03:58:54.811Z,25.00
2023-04-09T04:02:02.792Z,23.75
2023-04-09T04:05:09.262Z,27.75
2023-04-09T04:08:19.634Z,26.75
2023-04-09T04:11:23.176Z,22.75
2023-04-09T04:14:28.840Z,29.75
2023-04-09T04:17:41.007Z,26.75
2023-04-09T04:20:51.454Z,26.00
2023-04-09T04:23:54.188Z,20.50
2023-04-09T04:27:01.138Z,23.00
2023-04-09T04:30:10.780Z,21.25
2023-04-09T04:33:33.064Z,22.25
2023-04-09T04:36:37.413Z,26.25
2023-04-09T04:39:40.683Z,25.75
2023-04-09T04:42:47.328Z,22.50
2023-04-09T04:45:53.476Z,26.25
2023-04-09T04:48:59.805Z,30.00
2023-04-09T04:52:03.392Z,29.00
2023-04-09T04:55:07.452Z,28.00
2023-04-09T04:58:10.583Z,26.25
2023-04-09T05:01:20.209Z,32.50
2023-04-09T05:04:23.840Z,28.00
2023-04-09T05:07:26.743Z,30.75
2023-04-09T05:10:31.800Z,27.25
2023-04-09T05:13:35.950Z,33.75
2023-04-09T05:16:42.537Z,27.25
2023-04-09T05:19:53.175Z,29.25
2023-04-09T05:23:01.510Z,34.00
2023-04-09T05:26:08.874Z,35.75
2023-04-09T05:29:43.582Z,30.75
2023-04-09T05:32:46.446Z,28.75
2023-04-09T05:35:49.795Z,33.00
2023-04-09T05:38:52.966Z,35.75
2023-04-09T05:41:56.593Z,32.00
2023-04-09T05:45:08.347Z,36.00
2023-04-09T05:48:10.831Z,29.75
2023-04-09T05:51:15.986Z,33.00
2023-04-09T05:54:18.758Z,21.50
2023-04-09T05:57:21.828Z,32.75
2023-04-09T06:00:32.121Z,27.50
2023-04-09T06:03:35.001Z,28.75
2023-04-09T06:06:40.936Z,36.50
2023-04-09T06:09:47.138Z,26.00
2023-04-09T06:12:49.518Z,34.00
2023-04-09T06:15:52.529Z,34.00
2023-04-09T06:18:57.089Z,36.00
2023-04-09T06:21:59.765Z,32.75
2023-04-09T06:25:02.295Z,35.75
2023-04-09T06:28:05.430Z,28.75
2023-04-09T06:31:07.888Z,39.25
2023-04-09T06:34:11.359Z,36.00
2023-04-09T06:37:13.717Z,44.25
2023-04-09T06:40:16.686Z,41.25
2023-04-09T06:43:19.220Z,46.50
2023-04-09T06:46:26.872Z,40.50
2023-04-09T06:49:29.365Z,41.75
2023-04-09T06:52:32.163Z,37.00
2023-04-09T06:55:34.630Z,39.25
2023-04-09T06:58:37.401Z,42.25
2023-04-09T07:01:41.087Z,40.50
2023-04-09T07:04:44.059Z,35.50
2023-04-09T07:07:47.611Z,36.75
2023-04-09T07:10:50.379Z,32.75
2023-04-09T07:13:53.467Z,37.75
2023-04-09T07:16:56.465Z,34.25
2023-04-09T07:19:58.887Z,38.50
2023-04-09T07:23:01.791Z,35.00
2023-04-09T07:26:05.060Z,34.25
2023-04-09T07:29:10.137Z,35.50
2023-04-09T07:32:12.690Z,33.50
2023-04-09T07:35:15.705Z,31.25
2023-04-09T07:38:18.084Z,39.00
2023-04-09T07:41:21.154Z,35.50
2023-04-09T07:44:23.734Z,37.00
2023-04-09T07:47:27.328Z,31.00
2023-04-09T07:50:31.186Z,32.00
2023-04-09T07:53:33.984Z,29.50
2023-04-09T07:56:36.476Z,28.00
2023-04-09T07:59:39.258Z,29.00
2023-04-09T08:02:42.271Z,28.25
2023-04-09T08:05:45.775Z,35.00
2023-04-09T08:08:48.237Z,33.75
2023-04-09T08:11:50.985Z,28.75
2023-04-09T08:14:53.288Z,29.75
2023-04-09T08:17:56.193Z,31.00
2023-04-09T08:20:58.593Z,28.50
2023-04-09T08:24:04.664Z,24.00
2023-04-09T08:27:07.104Z,31.50
2023-04-09T08:30:10.456Z,28.00
2023-04-09T08:33:13.587Z,29.00
2023-04-09T08:36:16.323Z,28.75
2023-04-09T08:39:21.066Z,32.50
2023-04-09T08:42:25.579Z,28.75
2023-04-09T08:45:28.121Z,31.25
2023-04-09T08:48:31.006Z,29.00
2023-04-09T08:51:33.522Z,24.00
2023-04-09T08:54:36.936Z,28.00
2023-04-09T08:57:40.003Z,32.00
2023-04-09T09:00:42.932Z,26.25
2023-04-09T09:03:56.984Z,30.00
2023-04-09T09:07:07.149Z,32.75
2023-04-09T09:10:10.092Z,27.00
2023-04-09T09:13:26.871Z,30.75
2023-04-09T09:16:29.694Z,28.75
2023-04-09T09:19:33.825Z,27.50
2023-04-09T09:22:54.993Z,26.00
2023-04-09T09:25:58.285Z,25.50
2023-04-09T09:29:04.330Z,30.75
2023-04-09T09:32:13.828Z,28.50
2023-04-09T09:35:16.326Z,29.50
2023-04-09T09:38:19.118Z,28.25
2023-04-09T09:41:21.668Z,29.00
2023-04-09T09:44:32.340Z,31.25
2023-04-09T09:47:36.783Z,38.50
2023-04-09T09:50:43.685Z,28.25
2023-04-09T09:53:48.391Z,31.75
2023-04-09T09:56:52.984Z,28.75
2023-04-09T10:00:07.862Z,26.75
2023-04-09T10:03:23.616Z,31.00
2023-04-09T10:06:27.765Z,27.50
2023-04-09T10:09:32.692Z,30.00
2023-04-09T10:12:35.212Z,30.50
2023-04-09T10:15:38.629Z,31.75
2023-04-09T10:18:42.942Z,30.25
2023-04-09T10:21:56.851Z,29.50
2023-04-09T10:25:00.181Z,31.50
2023-04-09T10:28:03.699Z,30.75
2023-04-09T10:31:07.829Z,32.00
2023-04-09T10:34:11.004Z,24.25
2023-04-09T10:37:22.222Z,30.00
2023-04-09T10:40:25.262Z,36.75
2023-04-09T10:43:30.602Z,27.75
2023-04-09T10:46:37.259Z,33.50
2023-04-09T10:49:41.644Z,30.75
2023-04-09T10:52:44.693Z,31.75
2023-04-09T10:55:51.550Z,28.00
2023-04-09T10:58:54.392Z,27.50
2023-04-09T11:01:56.903Z,25.75
2023-04-09T11:05:23.596Z,28.25
2023-04-09T11:08:30.203Z,27.75
2023-04-09T11:11:34.795Z,28.75
2023-04-09T11:14:37.131Z,24.75
2023-04-09T11:17:39.958Z,25.75
2023-04-09T11:20:42.357Z,28.25
2023-04-09T11:23:52.304Z,23.00
2023-04-09T11:26:55.273Z,20.25
2023-04-09T11:29:58.036Z,28.50
2023-04-09T11:33:00.869Z,24.25
2023-04-09T11:36:06.481Z,22.75
2023-04-09T11:39:09.034Z,25.25
2023-04-09T11:42:15.609Z,24.00
2023-04-09T11:45:18.976Z,26.00
2023-04-09T11:48:23.621Z,22.50
2023-04-09T11:51:28.409Z,21.50
2023-04-09T11:54:34.699Z,19.75
2023-04-09T11:57:43.218Z,20.00
2023-04-09T12:00:46.377Z,22.25
2023-04-09T12:03:55.702Z,19.75
2023-04-09T12:07:01.379Z,19.75
2023-04-09T12:10:10.337Z,18.50
2023-04-09T12:13:13.947Z,20.25
2023-04-09T12:16:20.794Z,17.50
2023-04-09T12:19:26.027Z,16.00
2023-04-09T12:22:28.359Z,17.75
2023-04-09T12:25:32.462Z,19.00
2023-04-09T12:28:34.906Z,16.50
2023-04-09T12:31:37.858Z,19.75
2023-04-09T12:34:41.252Z,20.25
2023-04-09T12:37:44.520Z,18.50
2023-04-09T12:40:47.132Z,17.50
2023-04-09T12:43:49.977Z,17.75
2023-04-09T12:46:52.449Z,18.00
2023-04-09T12:49:55.129Z,20.25
2023-04-09T12:52:57.406Z,20.00
2023-04-09T12:56:00.112Z,19.50
2023-04-09T12:59:02.578Z,17.00
2023-04-09T13:02:05.524Z,13.25
2023-04-09T13:05:08.590Z,17.00
2023-04-09T13:08:11.517Z,23.00
2023-04-09T13:11:13.899Z,15.50
2023-04-09T13:14:16.631Z,16.00
2023-04-09T13:17:18.991Z,17.50
2023-04-09T13:20:21.841Z,18.00
2023-04-09T13:23:24.233Z,18.00
2023-04-09T13:26:27.062Z,15.00
2023-04-09T13:29:29.664Z,15.50
2023-04-09T13:32:32.431Z,16.00
2023-04-09T13:35:34.964Z,18.75
2023-04-09T13:38:37.716Z,17.00
2023-04-09T13:41:40.717Z,15.00
2023-04-09T13:44:45.198Z,15.50
2023-04-09T13:47:47.600Z,13.75
2023-04-09T13:50:50.527Z,14.25
2023-04-09T13:53:52.965Z,12.00
2023-04-09T13:56:55.701Z,15.00
2023-04-09T13:59:58.094Z,16.75
2023-04-09T14:03:01.290Z,17.25
2023-04-09T14:06:04.085Z,16.25
2023-04-09T14:09:06.785Z,15.25
2023-04-09T14:12:10.209Z,15.50
2023-04-09T14:15:12.924Z,15.00
2023-04-09T14:18:15.614Z,14.00
2023-04-09T14:21:18.682Z,16.75
2023-04-09T14:24:23.346Z,17.75
2023-04-09T14:27:26.632Z,15.50
2023-04-09T14:30:29.222Z,14.75
2023-04-09T14:33:32.024Z,16.50
2023-04-09T14:36:34.484Z,17.00
2023-04-09T14:39:37.171Z,16.50
2023-04-09T14:42:41.407Z,17.25
2023-04-09T14:45:44.131Z,16.00
2023-04-09T14:48:46.818Z,16.75
2023-04-09T14:51:49.738Z,17.25
2023-04-09T14:54:52.284Z,14.00
2023-04-09T14:57:55.151Z,12.00
2023-04-09T15:00:57.867Z,15.50
2023-04-09T15:04:00.899Z,15.25
2023-04-09T15:07:03.404Z,13.25
2023-04-09T15:10:06.790Z,14.50
2023-04-09T15:13:09.207Z,13.75
2023-04-09T15:16:20.693Z,19.00
2023-04-09T15:19:23.299Z,16.50
2023-04-09T15:22:26.537Z,12.75
2023-04-09T15:25:28.926Z,13.50
2023-04-09T15:28:31.687Z,17.00
2023-04-09T15:31:34.700Z,13.25
2023-04-09T15:34:37.616Z,13.25
2023-04-09T15:37:41.978Z,18.50
2023-04-09T15:40:44.744Z,12.00
2023-04-09T15:43:47.158Z,14.50
2023-04-09T15:46:50.046Z,14.50
2023-04-09T15:49:52.539Z,15.50
2023-04-09T15:52:56.453Z,15.25
2023-04-09T15:55:59.194Z,16.00
2023-04-09T15:59:02.461Z,15.75
2023-04-09T16:02:04.945Z,14.25
2023-04-09T16:05:08.221Z,13.25
2023-04-09T16:08:11.908Z,14.00
2023-04-09T16:11:15.615Z,13.00
2023-04-09T16:14:18.077Z,13.25
2023-04-09T16:17:21.054Z,14.00
2023-04-09T16:20:24.006Z,18.25
2023-04-09T16:23:29.940Z,15.25
2023-04-09T16:26:32.960Z,17.75
2023-04-09T16:29:35.671Z,16.00
2023-04-09T16:32:38.133Z,16.00
2023-04-09T16:35:41.707Z,20.00
2023-04-09T16:38:44.292Z,17.75
2023-04-09T16:41:49.596Z,18.75
2023-04-09T16:44:52.025Z,17.25
2023-04-09T16:47:54.922Z,19.25
2023-04-09T16:50:57.384Z,17.00
2023-04-09T16:54:00.354Z,18.75
2023-04-09T16:57:02.897Z,16.50
2023-04-09T17:00:07.058Z,22.50
2023-04-09T17:03:09.534Z,17.75
2023-04-09T17:06:12.448Z,21.00
2023-04-09T17:09:14.955Z,17.50
2023-04-09T17:12:18.475Z,19.00
2023-04-09T17:15:21.739Z,18.75
2023-04-09T17:18:24.578Z,17.75
2023-04-09T17:21:27.581Z,17.50
2023-04-09T17:24:30.450Z,17.25
2023-04-09T17:27:32.917Z,21.25
2023-04-09T17:30:35.616Z,23.75
2023-04-09T17:33:38.811Z,19.00
2023-04-09T17:36:42.686Z,19.75
2023-04-09T17:39:45.109Z,18.25
2023-04-09T17:42:49.512Z,19.00
2023-04-09T17:45:52.002Z,16.25
2023-04-09T17:48:54.901Z,20.75
2023-04-09T17:51:57.870Z,21.00
2023-04-09T17:55:00.494Z,24.00
2023-04-09T17:58:03.602Z,24.00
2023-04-09T18:01:08.927Z,19.75
2023-04-09T18:04:11.852Z,17.75
2023-04-09T18:07:15.031Z,18.25
2023-04-09T18:10:18.578Z,22.00
2023-04-09T18:13:21.494Z,17.00
2023-04-09T18:16:24.101Z,20.25
2023-04-09T18:19:26.966Z,23.75
2023-04-09T18:22:29.424Z,24.75
2023-04-09T18:25:32.175Z,28.75
2023-04-09T18:28:35.409Z,20.50
2023-04-09T18:31:38.125Z,25.75
2023-04-09T18:34:41.261Z,23.75
2023-04-09T18:37:44.194Z,23.75
2023-04-09T18:40:46.857Z,27.25
2023-04-09T18:43:50.228Z,27.75
2023-04-09T18:46:52.757Z,26.50
2023-04-09T18:49:55.773Z,27.25
2023-04-09T18:52:58.137Z,34.00
2023-04-09T18:56:01.272Z,29.25
2023-04-09T18:59:04.204Z,22.00
2023-04-09T19:02:07.758Z,22.25
2023-04-09T19:05:11.866Z,25.00
2023-04-09T19:08:15.258Z,20.00
2023-04-09T19:11:18.073Z,22.00
2023-04-09T19:14:22.103Z,20.75
2023-04-09T19:17:24.862Z,24.50
2023-04-09T19:20:31.028Z,27.00
2023-04-09T19:23:37.078Z,30.50
2023-04-09T19:26:40.105Z,25.00
2023-04-09T19:29:43.104Z,23.25
2023-04-09T19:32:46.242Z,24.00
2023-04-09T19:35:49.519Z,7.75
2023-04-09T19:38:52.611Z,30.00
2023-04-09T19:41:58.217Z,27.75
2023-04-09T19:45:02.111Z,25.00
2023-04-09T19:48:05.693Z,25.75
2023-04-09T19:51:08.481Z,28.25
2023-04-09T19:54:11.079Z,20.25
2023-04-09T19:57:15.368Z,36.50
2023-04-09T20:00:18.045Z,33.25
2023-04-09T20:03:21.280Z,31.50
2023-04-09T20:06:23.929Z,33.50
2023-04-09T20:09:29.036Z,26.50
2023-04-09T20:12:31.742Z,28.00
2023-04-09T20:15:34.804Z,33.50
2023-04-09T20:18:38.351Z,26.00
2023-04-09T20:21:41.082Z,32.75
2023-04-09T20:24:44.039Z,34.50
2023-04-09T20:27:46.907Z,39.75
2023-04-09T20:30:49.563Z,34.50
2023-04-09T20:33:53.087Z,28.00
2023-04-09T20:36:56.101Z,26.75
2023-04-09T20:39:59.815Z,27.75
2023-04-09T20:43:03.063Z,30.25
2023-04-09T20:46:07.428Z,28.00
2023-04-09T20:49:09.975Z,42.25
2023-04-09T20:52:13.191Z,37.00
2023-04-09T20:55:15.773Z,36.00
2023-04-09T20:58:18.861Z,35.25
2023-04-09T21:01:22.292Z,35.25
2023-04-09T21:04:25.924Z,40.50
2023-04-09T21:07:28.391Z,36.50
2023-04-09T21:10:31.298Z,38.50
2023-04-09T21:13:40.400Z,37.50
2023-04-09T21:16:49.645Z,35.00
2023-04-09T21:19:53.418Z,31.00
2023-04-09T21:22:56.637Z,31.75
2023-04-09T21:25:59.154Z,43.25
2023-04-09T21:29:02.184Z,39.00
2023-04-09T21:32:04.700Z,33.75
2023-04-09T21:35:07.953Z,29.50
2023-04-09T21:38:10.448Z,26.75
2023-04-09T21:41:13.374Z,40.25
2023-04-09T21:44:16.034Z,33.25
2023-04-09T21:47:19.369Z,31.75
2023-04-09T21:50:23.340Z,38.00
2023-04-09T21:53:27.381Z,38.00
2023-04-09T21:56:29.842Z,30.00
2023-04-09T21:59:32.595Z,33.50
2023-04-09T22:02:35.092Z,30.75
2023-04-09T22:05:38.076Z,36.50
2023-04-09T22:08:54.948Z,42.75
2023-04-09T22:11:59.883Z,39.50
2023-04-09T22:15:05.059Z,39.25
2023-04-09T22:18:07.791Z,34.25
2023-04-09T22:21:14.283Z,42.25
2023-04-09T22:24:18.484Z,38.25
2023-04-09T22:27:20.905Z,24.50
2023-04-09T22:30:24.658Z,36.75
2023-04-09T22:33:27.224Z,33.50
2023-04-09T22:36:29.939Z,37.25
2023-04-09T22:39:32.415Z,41.25
2023-04-09T22:42:35.147Z,33.25
2023-04-09T22:45:37.909Z,37.50
2023-04-09T22:48:44.973Z,44.00
2023-04-09T22:51:47.606Z,40.75
2023-04-09T22:54:50.256Z,38.00
2023-04-09T22:57:52.767Z,42.75
2023-04-09T23:00:55.451Z,36.75
2023-04-09T23:03:57.840Z,41.50
2023-04-09T23:07:00.920Z,41.75
2023-04-09T23:10:03.354Z,34.50
2023-04-09T23:13:06.313Z,41.25
2023-04-09T23:16:09.951Z,40.50
2023-04-09T23:19:12.631Z,34.25
2023-04-09T23:22:14.932Z,34.75
2023-04-09T23:25:17.909Z,34.25
2023-04-09T23:28:20.399Z,31.00
2023-04-09T23:31:23.153Z,30.00
2023-04-09T23:34:25.730Z,36.50
2023-04-09T23:37:28.400Z,43.67
2023-04-09T23:40:31.049Z,31.50
2023-04-09T23:43:33.782Z,34.25
2023-04-09T23:46:36.706Z,33.67
2023-04-09T23:49:41.933Z,36.33
2023-04-09T23:52:49.517Z,38.33
2023-04-09T23:55:52.928Z,43.67
2023-04-09T23:58:55.258Z,42.67
